Time;durP1;ratioP1;P1;durP2;ratioP2;P2;SDS_P1;SDS_P2;PMS_P1;PMS_P2;Temp;Humidity;BMP_temperature;BMP_pressure;BME280_temperature;BME280_humidity;BME280_pressure;Samples;Min_cycle;Max_cycle;Signal;HPM_P1;HPM_P2
2021/04/14 00:00:44;;;;;;;17.35;3.25;;;0.20;94.10;;;;;;4986529;28;20089;-67
2021/04/14 00:03:27;;;;;;;12.23;2.97;;;0.40;94.20;;;;;;4987185;28;20034;-67
2021/04/14 00:05:53;;;;;;;18.70;3.38;;;0.30;94.20;;;;;;4984768;28;20089;-67
2021/04/14 00:08:19;;;;;;;14.70;3.63;;;0.30;94.10;;;;;;4987311;28;20486;-66
2021/04/14 00:10:47;;;;;;;17.33;3.25;;;0.30;94.10;;;;;;4985057;28;20512;-66
2021/04/14 00:13:16;;;;;;;13.60;2.90;;;0.40;94.20;;;;;;4984749;28;20113;-66
2021/04/14 00:15:48;;;;;;;17.70;3.03;;;0.40;94.10;;;;;;4981550;28;20042;-67
2021/04/14 00:18:14;;;;;;;16.08;3.03;;;0.40;94.10;;;;;;4985914;28;20116;-67
2021/04/14 00:20:39;;;;;;;17.90;3.75;;;0.30;94.10;;;;;;4986601;28;20030;-66
2021/04/14 00:23:06;;;;;;;14.73;3.38;;;0.30;94.10;;;;;;4986760;28;20043;-68
2021/04/14 00:25:34;;;;;;;14.80;2.90;;;0.30;94.20;;;;;;4983356;28;20030;-68
2021/04/14 00:28:00;;;;;;;15.18;3.53;;;0.30;94.20;;;;;;4987388;28;20033;-67
2021/04/14 00:30:26;;;;;;;10.43;3.17;;;0.20;94.10;;;;;;4986414;28;20502;-67
2021/04/14 00:32:52;;;;;;;11.55;2.92;;;0.10;94.10;;;;;;4985688;28;20091;-67
2021/04/14 00:35:20;;;;;;;14.63;3.47;;;0.00;94.10;;;;;;4986219;28;20072;-66
2021/04/14 00:37:47;;;;;;;13.82;3.05;;;0.00;94.30;;;;;;4986865;28;20026;-67
2021/04/14 00:40:18;;;;;;;10.57;2.58;;;0.00;94.30;;;;;;4983013;28;20038;-70
2021/04/14 00:42:43;;;;;;;15.65;3.40;;;-3276.70;94.20;;;;;;4986057;28;20566;-67
2021/04/14 00:45:09;;;;;;;9.57;3.30;;;-3276.60;94.20;;;;;;4981762;28;20147;-67
2021/04/14 00:47:35;;;;;;;14.32;3.75;;;-3276.50;94.40;;;;;;4986692;28;20058;-67
2021/04/14 00:50:01;;;;;;;16.20;3.40;;;-3276.50;94.50;;;;;;4984060;28;20561;-67
2021/04/14 00:52:26;;;;;;;18.15;3.70;;;-3276.40;94.50;;;;;;4985081;28;20376;-67
2021/04/14 00:54:52;;;;;;;11.35;3.65;;;-3276.30;94.60;;;;;;4986649;28;20270;-67
2021/04/14 00:57:18;;;;;;;21.48;3.95;;;-3276.20;94.60;;;;;;4982418;28;20026;-67
2021/04/14 00:59:43;;;;;;;15.38;3.75;;;-3276.30;94.80;;;;;;4986304;28;20034;-68
2021/04/14 01:02:09;;;;;;;11.27;3.03;;;-3276.30;95.00;;;;;;4982876;28;20398;-68
2021/04/14 01:04:35;;;;;;;14.70;3.55;;;-3276.40;95.10;;;;;;4986948;28;20030;-67
2021/04/14 01:07:01;;;;;;;21.13;4.28;;;-3276.40;95.20;;;;;;4984907;28;20030;-67
2021/04/14 01:09:27;;;;;;;13.52;4.53;;;-3276.40;95.20;;;;;;4988399;28;20113;-68
2021/04/14 01:11:54;;;;;;;27.67;5.13;;;-3276.40;95.30;;;;;;4986859;28;20045;-67
2021/04/14 01:14:20;;;;;;;22.50;4.88;;;-3276.40;95.30;;;;;;4985230;28;20041;-67
2021/04/14 01:16:45;;;;;;;20.58;5.53;;;-3276.50;95.40;;;;;;4984336;28;20105;-67
2021/04/14 01:19:11;;;;;;;21.83;4.95;;;-3276.40;95.40;;;;;;4986892;28;20438;-67
2021/04/14 01:21:40;;;;;;;14.65;4.57;;;-3276.50;95.50;;;;;;4985572;28;20521;-68
2021/04/14 01:24:09;;;;;;;21.70;5.45;;;-3276.50;95.50;;;;;;4988417;28;20057;-67
2021/04/14 01:26:35;;;;;;;23.25;5.30;;;-3276.50;95.60;;;;;;4972954;28;20018;-68
2021/04/14 01:29:00;;;;;;;28.20;6.38;;;-3276.50;95.60;;;;;;4987149;28;20050;-67
2021/04/14 01:31:33;;;;;;;26.17;5.95;;;-3276.50;95.60;;;;;;4984290;28;20133;-67
2021/04/14 01:34:06;;;;;;;19.50;5.05;;;-3276.50;95.60;;;;;;4987634;28;20053;-67
2021/04/14 01:36:33;;;;;;;20.23;5.00;;;-3276.40;95.60;;;;;;4984911;28;20494;-67
2021/04/14 01:38:58;;;;;;;18.27;4.85;;;-3276.30;95.40;;;;;;4985074;28;20058;-68
2021/04/14 01:41:24;;;;;;;14.35;4.88;;;-3276.10;95.30;;;;;;4985589;28;20050;-68
2021/04/14 01:43:50;;;;;;;18.05;5.50;;;-3276.00;95.30;;;;;;4984422;28;20065;-67
2021/04/14 01:46:15;;;;;;;19.83;5.38;;;-3275.90;95.30;;;;;;4982066;28;20034;-67
2021/04/14 01:48:41;;;;;;;18.55;5.55;;;-3275.80;95.40;;;;;;4986702;28;20069;-67
2021/04/14 01:51:06;;;;;;;16.95;5.85;;;-3275.80;95.40;;;;;;4984419;28;20114;-68
2021/04/14 01:53:32;;;;;;;26.50;6.22;;;-3275.90;95.60;;;;;;4988159;28;20262;-68
2021/04/14 01:55:58;;;;;;;27.50;6.30;;;-3275.90;95.60;;;;;;4985345;28;20057;-68
2021/04/14 01:58:25;;;;;;;37.22;6.45;;;-3276.00;95.70;;;;;;4987339;28;20022;-68
2021/04/14 02:00:56;;;;;;;27.60;7.53;;;-3276.10;95.80;;;;;;4985119;28;20035;-68
2021/04/14 02:03:23;;;;;;;31.55;6.93;;;-3276.20;96.00;;;;;;4984932;28;20037;-67
2021/04/14 02:05:49;;;;;;;26.92;6.75;;;-3276.30;96.00;;;;;;4983151;28;20035;-68
2021/04/14 02:08:15;;;;;;;25.65;7.43;;;-3276.40;96.10;;;;;;4986608;28;20374;-68
2021/04/14 02:10:41;;;;;;;29.40;6.68;;;-3276.60;96.10;;;;;;4984976;28;20678;-67
2021/04/14 02:13:13;;;;;;;32.83;7.15;;;0.00;96.20;;;;;;4987182;28;20030;-67
2021/04/14 02:15:38;;;;;;;30.30;7.05;;;0.10;96.20;;;;;;4982478;28;20034;-68
2021/04/14 02:18:05;;;;;;;31.52;7.80;;;0.10;96.10;;;;;;4985892;28;20027;-68
2021/04/14 02:20:32;;;;;;;33.20;7.80;;;0.10;96.00;;;;;;4985626;28;20213;-67
2021/04/14 02:22:58;;;;;;;38.58;7.13;;;0.10;96.00;;;;;;4986776;28;20256;-67
2021/04/14 02:25:25;;;;;;;30.05;7.45;;;0.10;96.00;;;;;;4985336;28;20068;-66
2021/04/14 02:27:51;;;;;;;34.72;6.95;;;0.10;95.90;;;;;;4984361;28;20061;-68
2021/04/14 02:30:27;;;;;;;19.33;6.50;;;0.10;95.90;;;;;;4986795;28;20599;-67
2021/04/14 02:32:54;;;;;;;26.90;7.15;;;0.10;95.80;;;;;;4985760;28;20556;-68
2021/04/14 02:35:22;;;;;;;23.30;6.88;;;0.00;95.70;;;;;;4987644;28;20486;-70
2021/04/14 02:37:47;;;;;;;22.30;7.03;;;0.00;95.70;;;;;;4985781;28;20363;-67
2021/04/14 02:40:14;;;;;;;23.42;7.07;;;0.00;95.70;;;;;;4986767;28;20031;-67
2021/04/14 02:42:41;;;;;;;21.52;6.72;;;0.00;95.70;;;;;;4984568;28;20407;-68
2021/04/14 02:45:09;;;;;;;17.23;6.65;;;-3276.70;95.60;;;;;;4987797;28;20061;-68
2021/04/14 02:47:34;;;;;;;21.83;6.35;;;-3276.60;95.50;;;;;;4989355;28;20033;-68
2021/04/14 02:50:00;;;;;;;34.67;6.95;;;-3276.50;95.50;;;;;;4985457;28;20483;-68
2021/04/14 02:52:26;;;;;;;27.90;6.72;;;-3276.40;95.50;;;;;;4977353;28;20026;-67
2021/04/14 02:54:52;;;;;;;30.15;7.45;;;-3276.40;95.70;;;;;;4985989;28;20503;-67
2021/04/14 02:57:17;;;;;;;37.80;7.25;;;-3276.40;95.80;;;;;;4985057;28;20043;-67
2021/04/14 02:59:43;;;;;;;29.23;8.27;;;-3276.40;95.80;;;;;;4982741;28;20027;-67
2021/04/14 03:02:08;;;;;;;35.22;7.93;;;-3276.40;95.90;;;;;;4986210;28;20471;-68
2021/04/14 03:04:35;;;;;;;35.75;8.15;;;-3276.40;95.90;;;;;;4986124;28;20036;-67
2021/04/14 03:07:02;;;;;;;28.50;7.72;;;-3276.50;96.00;;;;;;4984180;28;20022;-67
2021/04/14 03:09:27;;;;;;;36.50;7.85;;;-3276.40;96.00;;;;;;4984188;28;20076;-67
2021/04/14 03:11:53;;;;;;;24.60;6.85;;;-3276.40;96.00;;;;;;4979002;28;20448;-67
2021/04/14 03:14:18;;;;;;;27.25;8.05;;;-3276.30;96.00;;;;;;4986097;28;20065;-67
2021/04/14 03:16:44;;;;;;;26.63;7.72;;;-3276.20;96.00;;;;;;4980247;28;20491;-67
2021/04/14 03:19:09;;;;;;;24.70;7.43;;;-3276.10;96.00;;;;;;4985929;28;20439;-68
2021/04/14 03:21:35;;;;;;;39.40;8.27;;;-3276.00;95.90;;;;;;4979449;28;20062;-68
2021/04/14 03:24:01;;;;;;;33.65;8.82;;;-3276.00;96.00;;;;;;4986268;28;20545;-67
2021/04/14 03:26:27;;;;;;;23.15;7.78;;;-3276.00;96.10;;;;;;4985043;28;20023;-67
2021/04/14 03:28:52;;;;;;;33.70;9.10;;;-3275.90;96.10;;;;;;4985772;28;20023;-68
2021/04/14 03:31:19;;;;;;;27.70;7.40;;;-3276.00;96.20;;;;;;4967597;28;20462;-66
2021/04/14 03:33:45;;;;;;;35.17;8.70;;;-3275.80;96.10;;;;;;4989820;28;20026;-67
2021/04/14 03:36:11;;;;;;;31.30;8.38;;;-3275.70;96.00;;;;;;4989507;28;20387;-67
2021/04/14 03:38:36;;;;;;;35.95;8.38;;;-3275.80;96.20;;;;;;4990551;28;20031;-67
2021/04/14 03:41:03;;;;;;;31.95;7.90;;;-3275.60;96.10;;;;;;4982700;28;20133;-66
2021/04/14 03:43:29;;;;;;;26.65;7.88;;;-3275.50;96.00;;;;;;4987831;28;20451;-67
2021/04/14 03:45:58;;;;;;;33.88;8.02;;;-3275.60;96.10;;;;;;4988381;28;20046;-67
2021/04/14 03:48:25;;;;;;;41.20;8.68;;;-3275.50;96.10;;;;;;4984901;28;20122;-68
2021/04/14 03:50:51;;;;;;;34.40;8.00;;;-3275.60;96.10;;;;;;4988198;28;20026;-67
2021/04/14 03:53:27;;;;;;;42.97;9.13;;;-3275.70;96.20;;;;;;4989637;28;20026;-67
2021/04/14 03:55:56;;;;;;;47.28;9.30;;;-3275.80;96.30;;;;;;4987732;28;20103;-67
2021/04/14 03:58:23;;;;;;;45.22;10.77;;;-3275.90;96.30;;;;;;4976827;28;20122;-67
2021/04/14 04:00:54;;;;;;;48.15;11.27;;;-3276.00;96.30;;;;;;4988501;28;20061;-67
2021/04/14 04:03:22;;;;;;;55.65;10.60;;;-3276.10;96.40;;;;;;4986161;28;20026;-67
2021/04/14 04:05:48;;;;;;;42.90;11.07;;;-3276.20;96.40;;;;;;4986316;28;20110;-67
2021/04/14 04:08:14;;;;;;;36.78;10.18;;;-3276.30;96.40;;;;;;4985859;28;20022;-67
2021/04/14 04:10:40;;;;;;;33.10;9.60;;;-3276.30;96.30;;;;;;4989026;28;20037;-67
2021/04/14 04:13:07;;;;;;;36.63;8.70;;;-3276.20;96.20;;;;;;4980690;28;20026;-67
2021/04/14 04:15:33;;;;;;;35.55;9.73;;;-3276.20;96.30;;;;;;4988432;28;20042;-67
2021/04/14 04:18:00;;;;;;;33.72;9.50;;;-3276.20;96.30;;;;;;4983409;28;20038;-67
2021/04/14 04:20:26;;;;;;;36.63;9.32;;;-3276.20;96.30;;;;;;4988629;28;20040;-67
2021/04/14 04:22:51;;;;;;;35.40;8.70;;;-3276.20;96.20;;;;;;4987224;28;20440;-68
2021/04/14 04:25:17;;;;;;;34.22;7.75;;;-3276.20;96.20;;;;;;4986244;28;20034;-68
2021/04/14 04:27:43;;;;;;;40.03;9.65;;;-3276.10;96.20;;;;;;4985475;28;20019;-67
2021/04/14 04:30:09;;;;;;;41.20;10.23;;;-3276.10;96.30;;;;;;4985281;28;20113;-67
2021/04/14 04:32:35;;;;;;;46.47;9.77;;;-3276.30;96.40;;;;;;4980372;28;20108;-68
2021/04/14 04:35:02;;;;;;;38.08;10.48;;;-3276.50;96.40;;;;;;4988119;28;20467;-67
2021/04/14 04:37:27;;;;;;;36.40;11.15;;;-3276.60;96.50;;;;;;4986823;28;20426;-67
2021/04/14 04:39:53;;;;;;;42.05;11.50;;;0.00;96.60;;;;;;4988538;28;20026;-67
2021/04/14 04:42:19;;;;;;;49.85;13.13;;;0.10;96.60;;;;;;4986168;28;20037;-67
2021/04/14 04:44:45;;;;;;;31.40;12.20;;;0.20;96.50;;;;;;4984542;28;20026;-67
2021/04/14 04:47:11;;;;;;;38.83;12.77;;;0.30;96.50;;;;;;4983602;28;20052;-67
2021/04/14 04:49:36;;;;;;;43.38;12.50;;;0.40;96.40;;;;;;4986343;28;20383;-66
2021/04/14 04:52:02;;;;;;;35.72;11.70;;;0.40;96.30;;;;;;4983479;28;20091;-67
2021/04/14 04:54:31;;;;;;;34.90;11.95;;;0.40;96.30;;;;;;4987130;28;20426;-67
2021/04/14 04:56:57;;;;;;;38.95;11.23;;;0.40;96.30;;;;;;4977138;28;20053;-67
2021/04/14 04:59:22;;;;;;;41.30;12.88;;;0.40;96.30;;;;;;4989101;28;20486;-67
2021/04/14 05:01:48;;;;;;;37.38;12.48;;;0.40;96.30;;;;;;4983476;28;20030;-67
2021/04/14 05:04:13;;;;;;;46.05;13.10;;;0.50;96.30;;;;;;4986334;28;20113;-67
2021/04/14 05:06:39;;;;;;;32.13;11.88;;;0.60;96.30;;;;;;4984244;28;20025;-67
2021/04/14 05:09:06;;;;;;;27.05;11.32;;;0.50;96.20;;;;;;4985074;28;20034;-67
2021/04/14 05:11:31;;;;;;;43.30;11.82;;;0.50;96.20;;;;;;4987163;28;20533;-67
2021/04/14 05:13:57;;;;;;;26.00;11.10;;;0.60;96.20;;;;;;4988543;28;20034;-67
2021/04/14 05:16:24;;;;;;;31.27;11.00;;;0.50;96.10;;;;;;4993840;28;20021;-67
2021/04/14 05:18:49;;;;;;;33.83;12.00;;;0.60;96.10;;;;;;4982106;28;20498;-67
2021/04/14 05:21:16;;;;;;;28.05;10.82;;;0.60;96.10;;;;;;4987297;28;20049;-70
2021/04/14 05:23:41;;;;;;;28.63;12.02;;;0.60;96.10;;;;;;4985754;28;20530;-70
2021/04/14 05:26:07;;;;;;;32.42;11.18;;;0.60;96.10;;;;;;4988492;28;20110;-68
2021/04/14 05:28:33;;;;;;;40.67;11.63;;;0.60;96.10;;;;;;4982446;28;20050;-67
2021/04/14 05:30:58;;;;;;;26.40;10.77;;;0.60;96.00;;;;;;4984635;28;20030;-68
2021/04/14 05:33:25;;;;;;;24.85;11.60;;;0.60;96.00;;;;;;4985184;28;20084;-68
2021/04/14 05:35:52;;;;;;;41.53;12.75;;;0.60;96.00;;;;;;4971284;28;20110;-68
2021/04/14 05:38:18;;;;;;;41.28;11.73;;;0.70;96.00;;;;;;4980533;28;20038;-67
2021/04/14 05:40:43;;;;;;;33.70;12.02;;;0.70;96.00;;;;;;4986619;28;20230;-67
2021/04/14 05:43:24;;;;;;;30.45;12.05;;;0.70;96.00;;;;;;4984793;28;20526;-67
2021/04/14 05:45:55;;;;;;;32.22;12.35;;;0.70;96.00;;;;;;4987638;28;20040;-67
2021/04/14 05:48:21;;;;;;;31.35;11.35;;;0.70;95.90;;;;;;4982834;28;20038;-67
2021/04/14 05:50:47;;;;;;;26.42;11.98;;;0.80;95.90;;;;;;4986999;28;20769;-67
2021/04/14 05:53:13;;;;;;;28.17;11.40;;;0.80;95.90;;;;;;4983870;28;20034;-68
2021/04/14 05:55:38;;;;;;;30.95;11.38;;;0.90;96.00;;;;;;4987876;28;20543;-67
2021/04/14 05:58:04;;;;;;;26.88;10.55;;;1.10;95.90;;;;;;4983755;28;21259;-67
2021/04/14 06:00:29;;;;;;;26.27;9.77;;;1.10;95.80;;;;;;4986584;28;20038;-67
2021/04/14 06:02:55;;;;;;;26.70;9.43;;;1.10;95.60;;;;;;4985973;28;20033;-66
2021/04/14 06:05:22;;;;;;;24.23;9.30;;;1.10;95.60;;;;;;4987449;28;20030;-66
2021/04/14 06:07:49;;;;;;;25.02;8.18;;;1.10;95.50;;;;;;4983082;28;20494;-66
2021/04/14 06:10:16;;;;;;;21.48;8.65;;;1.20;95.50;;;;;;4986105;28;20026;-65
2021/04/14 06:12:41;;;;;;;18.60;7.60;;;1.40;95.40;;;;;;4985484;28;20046;-66
2021/04/14 06:15:11;;;;;;;15.10;7.20;;;1.60;95.30;;;;;;4985353;28;20545;-66
2021/04/14 06:17:36;;;;;;;20.38;7.32;;;1.70;94.90;;;;;;4983488;28;20113;-66
2021/04/14 06:20:05;;;;;;;19.80;6.40;;;1.80;94.60;;;;;;4986057;28;20121;-66
2021/04/14 06:22:31;;;;;;;14.30;6.05;;;1.90;94.40;;;;;;4986323;28;20037;-66
2021/04/14 06:24:56;;;;;;;14.88;5.90;;;2.00;94.30;;;;;;4987847;28;20034;-66
2021/04/14 06:27:33;;;;;;;13.15;5.65;;;2.00;93.80;;;;;;4985316;28;20023;-67
2021/04/14 06:29:58;;;;;;;17.58;4.97;;;2.00;93.60;;;;;;4985151;28;20557;-66
2021/04/14 06:32:24;;;;;;;12.32;4.97;;;2.10;93.60;;;;;;4985178;28;20027;-66
2021/04/14 06:34:52;;;;;;;14.60;4.90;;;2.10;93.50;;;;;;4983826;28;20030;-65
2021/04/14 06:37:18;;;;;;;10.23;4.43;;;2.20;93.20;;;;;;4978881;28;20049;-66
2021/04/14 06:39:47;;;;;;;12.05;4.97;;;2.40;93.20;;;;;;4984398;28;20038;-66
2021/04/14 06:42:52;;;;;;;11.40;4.57;;;2.30;92.70;;;;;;4984254;28;20034;-66
2021/04/14 06:45:30;;;;;;;8.35;4.43;;;2.40;92.90;;;;;;4985934;28;20038;-66
2021/04/14 06:48:04;;;;;;;10.30;3.63;;;2.50;92.80;;;;;;4980673;28;20037;-66
2021/04/14 06:50:33;;;;;;;11.13;4.10;;;2.50;92.80;;;;;;4964591;28;20034;-66
2021/04/14 06:53:04;;;;;;;7.55;3.38;;;2.50;92.70;;;;;;4982472;28;20023;-66
2021/04/14 06:55:35;;;;;;;11.27;4.00;;;2.50;92.60;;;;;;4977244;28;20554;-66
2021/04/14 06:58:24;;;;;;;10.48;3.67;;;2.70;92.80;;;;;;4984605;28;20395;-65
2021/04/14 07:00:55;;;;;;;11.13;3.83;;;2.70;92.10;;;;;;4966434;28;20077;-66
2021/04/14 07:03:26;;;;;;;6.75;2.97;;;2.90;92.00;;;;;;4978244;28;20041;-66
2021/04/14 07:05:57;;;;;;;6.63;2.63;;;3.20;91.20;;;;;;4976875;28;20031;-66
2021/04/14 07:08:38;;;;;;;8.93;2.20;;;3.20;90.70;;;;;;4982035;28;20088;-67
2021/04/14 07:11:04;;;;;;;7.57;2.55;;;3.40;90.40;;;;;;4974679;28;20567;-67
2021/04/14 07:13:36;;;;;;;12.50;2.58;;;3.70;90.30;;;;;;4988422;28;20116;-67
2021/04/14 07:16:14;;;;;;;7.63;2.28;;;3.70;90.00;;;;;;4988394;28;20026;-67
2021/04/14 07:18:55;;;;;;;5.82;1.77;;;3.90;89.00;;;;;;4985695;28;20030;-67
2021/04/14 07:21:30;;;;;;;;;;;4.10;89.20;;;;;;4988378;28;20035;-67
2021/04/14 07:24:08;;;;;;;9.13;1.85;;;3.90;87.60;;;;;;4979775;28;20071;-66
2021/04/14 07:26:40;;;;;;;6.28;1.50;;;4.10;87.10;;;;;;4991062;28;20117;-67
2021/04/14 07:29:21;;;;;;;7.63;1.42;;;4.40;87.70;;;;;;4978491;28;20026;-67
2021/04/14 07:31:50;;;;;;;5.97;1.77;;;4.40;86.50;;;;;;4991590;28;20065;-66
2021/04/14 07:34:43;;;;;;;7.22;1.75;;;4.50;86.10;;;;;;4983851;28;20022;-66
2021/04/14 07:37:27;;;;;;;4.25;1.80;;;4.60;84.90;;;;;;4988637;28;20041;-67
2021/04/14 07:40:02;;;;;;;7.13;1.40;;;4.90;86.30;;;;;;4989600;28;20030;-67
2021/04/14 07:42:52;;;;;;;4.68;1.50;;;5.10;84.70;;;;;;5004481;28;20022;-67
2021/04/14 07:45:32;;;;;;;6.20;1.50;;;5.20;84.30;;;;;;4984697;28;20382;-67
2021/04/14 07:48:00;;;;;;;9.88;1.25;;;5.50;83.40;;;;;;4985479;28;20030;-67
2021/04/14 07:50:34;;;;;;;7.10;1.75;;;5.50;81.40;;;;;;4986376;28;20034;-67
2021/04/14 07:53:00;;;;;;;6.93;1.40;;;5.60;79.70;;;;;;4987577;28;20049;-67
2021/04/14 07:55:31;;;;;;;6.68;1.58;;;5.50;79.40;;;;;;4984583;28;20117;-67
2021/04/14 07:58:12;;;;;;;6.18;1.10;;;5.90;79.60;;;;;;4987259;28;20088;-67
2021/04/14 08:00:42;;;;;;;6.68;1.42;;;6.10;77.40;;;;;;4986275;28;20497;-67
2021/04/14 08:03:14;;;;;;;7.10;1.10;;;6.50;77.50;;;;;;4984857;28;20042;-66
2021/04/14 08:05:40;;;;;;;8.50;1.45;;;6.50;77.30;;;;;;4988017;28;20030;-67
2021/04/14 08:08:32;;;;;;;4.45;1.08;;;6.80;75.00;;;;;;4984687;28;20521;-66
2021/04/14 08:11:32;;;;;;;2.67;1.00;;;7.10;73.40;;;;;;4989315;28;20084;-67
2021/04/14 08:14:37;;;;;;;10.32;1.17;;;7.10;72.70;;;;;;4980517;28;20037;-67
2021/04/14 08:17:20;;;;;;;4.65;1.40;;;6.60;73.60;;;;;;4987077;28;20364;-66
2021/04/14 08:19:56;;;;;;;6.18;1.10;;;6.20;76.10;;;;;;4980162;28;20031;-67
2021/04/14 08:22:24;;;;;;;5.82;1.52;;;6.00;75.50;;;;;;4988949;28;20218;-67
2021/04/14 08:24:55;;;;;;;5.35;1.23;;;5.70;77.60;;;;;;4988485;28;20026;-67
2021/04/14 08:27:45;;;;;;;5.63;1.20;;;5.70;78.00;;;;;;4988142;28;20105;-67
2021/04/14 08:30:18;;;;;;;5.38;1.20;;;5.70;77.80;;;;;;4984044;28;20026;-67
2021/04/14 08:33:05;;;;;;;8.07;1.42;;;6.00;77.80;;;;;;4987468;28;20089;-67
2021/04/14 08:35:41;;;;;;;4.78;1.40;;;6.00;77.70;;;;;;4990126;28;20030;-67
2021/04/14 08:38:29;;;;;;;5.85;1.25;;;5.70;75.70;;;;;;4983553;28;20034;-66
2021/04/14 08:40:57;;;;;;;5.40;1.45;;;5.60;76.50;;;;;;4985665;28;20410;-67
2021/04/14 08:43:44;;;;;;;6.15;1.50;;;5.70;76.50;;;;;;4986156;28;20037;-67
2021/04/14 08:46:40;;;;;;;3.83;1.42;;;6.20;77.50;;;;;;4988215;28;20041;-67
2021/04/14 08:49:10;;;;;;;4.30;1.75;;;6.50;74.40;;;;;;4965288;28;20045;-67
2021/04/14 08:51:42;;;;;;;7.15;1.40;;;7.50;73.80;;;;;;4988164;28;20103;-67
2021/04/14 08:54:12;;;;;;;6.13;1.77;;;7.60;69.80;;;;;;4987934;28;20031;-67
2021/04/14 08:56:38;;;;;;;3.45;1.17;;;8.70;70.50;;;;;;4975659;28;20041;-66
2021/04/14 08:59:03;;;;;;;4.13;1.35;;;7.00;72.60;;;;;;4986476;28;20034;-66
2021/04/14 09:01:31;;;;;;;2.10;1.00;;;6.20;77.50;;;;;;4974303;28;20041;-66
2021/04/14 09:04:00;;;;;;;3.25;1.00;;;5.90;76.50;;;;;;4978195;28;20089;-66
2021/04/14 09:06:27;;;;;;;2.50;0.85;;;5.60;78.50;;;;;;4985118;28;20033;-65
2021/04/14 09:08:54;;;;;;;2.15;0.68;;;5.20;77.30;;;;;;4987423;28;20085;-66
2021/04/14 09:11:30;;;;;;;6.90;1.00;;;4.90;77.60;;;;;;4988838;28;20045;-66
2021/04/14 09:14:26;;;;;;;1.50;0.75;;;4.80;79.20;;;;;;4966890;28;20034;-68
2021/04/14 09:17:05;;;;;;;2.85;0.90;;;5.10;79.60;;;;;;4986949;28;20061;-68
2021/04/14 09:19:37;;;;;;;3.47;0.70;;;5.80;77.90;;;;;;4978739;28;20041;-68
2021/04/14 09:22:24;;;;;;;2.35;0.90;;;6.30;79.00;;;;;;4979451;28;20109;-68
2021/04/14 09:25:03;;;;;;;5.40;1.00;;;6.20;75.60;;;;;;4982522;28;20030;-69
2021/04/14 09:27:37;;;;;;;3.25;1.15;;;6.70;76.70;;;;;;4988618;28;20221;-69
2021/04/14 09:30:22;;;;;;;7.93;1.15;;;7.10;74.90;;;;;;4986994;28;20510;-69
2021/04/14 09:33:14;;;;;;;6.20;0.77;;;7.00;73.10;;;;;;4987749;28;20426;-69
2021/04/14 09:35:56;;;;;;;6.07;1.02;;;7.20;73.10;;;;;;4987146;28;20041;-69
2021/04/14 09:38:24;;;;;;;1.10;0.57;;;7.60;70.60;;;;;;4983939;28;20030;-69
2021/04/14 09:40:51;;;;;;;2.33;1.15;;;7.40;70.00;;;;;;4986874;28;20022;-66
2021/04/14 09:43:38;;;;;;;3.80;0.80;;;7.70;70.00;;;;;;4982528;28;20189;-66
2021/04/14 09:46:10;;;;;;;6.32;1.20;;;7.80;65.70;;;;;;4982662;28;20033;-66
2021/04/14 09:48:47;;;;;;;5.72;0.90;;;8.40;67.90;;;;;;4979468;28;20620;-67
2021/04/14 09:51:20;;;;;;;4.95;0.95;;;7.80;66.90;;;;;;4987344;28;20030;-67
2021/04/14 09:53:48;;;;;;;4.78;1.73;;;7.80;69.20;;;;;;4981973;28;20030;-67
2021/04/14 09:56:19;;;;;;;4.43;1.20;;;7.80;70.00;;;;;;4987480;28;20084;-67
2021/04/14 09:59:01;;;;;;;3.65;0.80;;;8.50;66.50;;;;;;4984759;28;20031;-67
2021/04/14 10:01:32;;;;;;;3.35;1.02;;;9.00;64.10;;;;;;4982917;28;20491;-67
2021/04/14 10:04:00;;;;;;;3.72;1.10;;;9.20;62.40;;;;;;4976722;28;20088;-67
2021/04/14 10:06:27;;;;;;;6.32;0.82;;;8.10;65.90;;;;;;4984075;28;20061;-67
2021/04/14 10:09:00;;;;;;;4.15;1.10;;;7.70;67.50;;;;;;4980442;28;20027;-67
2021/04/14 10:11:34;;;;;;;4.60;0.80;;;7.10;70.50;;;;;;4982073;28;20046;-67
2021/04/14 10:14:18;;;;;;;4.03;0.88;;;6.80;72.90;;;;;;4975084;28;20112;-67
2021/04/14 10:16:45;;;;;;;3.00;0.90;;;6.70;73.10;;;;;;4986659;28;20057;-68
2021/04/14 10:19:14;;;;;;;5.25;1.00;;;6.60;73.00;;;;;;4979308;28;20031;-67
2021/04/14 10:21:42;;;;;;;5.32;0.93;;;6.70;72.40;;;;;;4980866;28;20042;-67
2021/04/14 10:24:13;;;;;;;3.58;0.80;;;6.60;73.70;;;;;;4976652;28;20519;-67
2021/04/14 10:26:54;;;;;;;7.43;1.00;;;7.10;72.10;;;;;;4982919;28;20612;-67
2021/04/14 10:29:28;;;;;;;4.57;0.93;;;7.90;70.20;;;;;;4980726;28;20093;-68
2021/04/14 10:31:57;;;;;;;3.50;0.80;;;8.50;65.60;;;;;;4984405;28;20045;-68
2021/04/14 10:34:27;;;;;;;7.22;1.00;;;8.90;62.60;;;;;;4981747;28;20133;-67
2021/04/14 10:36:54;;;;;;;7.50;1.00;;;8.90;64.60;;;;;;4975632;28;20022;-67
2021/04/14 10:39:31;;;;;;;4.75;1.08;;;8.40;65.50;;;;;;4980503;28;20316;-67
2021/04/14 10:41:58;;;;;;;5.28;0.65;;;8.40;64.30;;;;;;4985261;28;20036;-67
2021/04/14 10:44:28;;;;;;;5.55;1.20;;;8.80;65.10;;;;;;4979566;28;20027;-68
2021/04/14 10:47:17;;;;;;;3.15;0.82;;;8.90;62.80;;;;;;4985869;28;20113;-67
2021/04/14 10:49:42;;;;;;;3.10;0.77;;;9.10;62.60;;;;;;4979378;28;20367;-68
2021/04/14 10:52:14;;;;;;;5.80;0.90;;;9.20;58.40;;;;;;4982992;28;20033;-67
2021/04/14 10:54:53;;;;;;;5.90;0.98;;;9.30;61.10;;;;;;4982151;28;20026;-67
2021/04/14 10:57:34;;;;;;;4.95;0.90;;;9.60;59.80;;;;;;4971159;28;20050;-67
2021/04/14 11:00:07;;;;;;;4.22;0.98;;;9.70;60.30;;;;;;4977955;28;20081;-67
2021/04/14 11:02:36;;;;;;;4.80;0.98;;;8.50;62.80;;;;;;4986709;28;20414;-66
2021/04/14 11:05:02;;;;;;;4.70;0.95;;;8.10;68.40;;;;;;4978445;28;20490;-67
2021/04/14 11:07:30;;;;;;;3.58;0.80;;;7.80;67.50;;;;;;4982604;28;20578;-67
2021/04/14 11:10:03;;;;;;;3.42;0.98;;;7.50;72.10;;;;;;4980105;28;20050;-67
2021/04/14 11:12:30;;;;;;;4.68;1.05;;;7.10;68.70;;;;;;4983483;28;20034;-66
2021/04/14 11:15:00;;;;;;;4.03;1.10;;;7.20;71.30;;;;;;4983368;28;20096;-67
2021/04/14 11:17:28;;;;;;;3.95;1.00;;;7.10;72.50;;;;;;4979510;28;20058;-67
2021/04/14 11:19:59;;;;;;;3.20;0.90;;;7.10;74.20;;;;;;4982028;28;20037;-67
2021/04/14 11:22:39;;;;;;;3.45;0.93;;;7.30;73.20;;;;;;4987156;28;20042;-67
2021/04/14 11:25:05;;;;;;;5.82;1.20;;;8.00;70.40;;;;;;4982298;28;20093;-67
2021/04/14 11:27:31;;;;;;;2.47;0.80;;;8.80;68.30;;;;;;4984887;28;20036;-67
2021/04/14 11:30:17;;;;;;;7.38;1.15;;;9.10;64.10;;;;;;4965076;28;20026;-67
2021/04/14 11:33:00;;;;;;;6.30;0.98;;;9.00;64.90;;;;;;4987309;28;20031;-68
2021/04/14 11:35:42;;;;;;;4.60;0.90;;;8.70;68.90;;;;;;4983458;28;20058;-67
2021/04/14 11:38:41;;;;;;;1.85;0.52;;;7.50;72.10;;;;;;4984857;28;20034;-66
2021/04/14 11:41:20;;;;;;;3.00;0.65;;;6.40;74.40;;;;;;4980913;28;20147;-66
2021/04/14 11:43:46;;;;;;;2.70;0.75;;;5.90;78.30;;;;;;4985301;28;20113;-66
2021/04/14 11:46:25;;;;;;;2.65;0.85;;;5.60;80.10;;;;;;4987027;28;20117;-67
2021/04/14 11:49:08;;;;;;;2.25;0.70;;;5.50;79.90;;;;;;4979423;28;20089;-67
2021/04/14 11:51:43;;;;;;;3.08;0.90;;;5.60;80.40;;;;;;4980649;28;20079;-67
2021/04/14 11:54:34;;;;;;;3.42;1.00;;;5.60;77.70;;;;;;4987545;28;20037;-67
2021/04/14 11:57:06;;;;;;;3.53;1.13;;;5.90;77.30;;;;;;4988718;28;20101;-67
2021/04/14 11:59:36;;;;;;;4.53;1.17;;;6.30;79.40;;;;;;4980761;28;20072;-67
2021/04/14 12:02:15;;;;;;;4.60;0.88;;;6.40;76.20;;;;;;4970818;28;20120;-66
2021/04/14 12:04:43;;;;;;;2.05;0.63;;;6.90;75.40;;;;;;4983879;28;20097;-67
2021/04/14 12:07:09;;;;;;;4.15;0.70;;;7.80;73.30;;;;;;4986840;28;20026;-68
2021/04/14 12:09:35;;;;;;;4.32;0.95;;;8.20;68.40;;;;;;4983327;28;20025;-67
2021/04/14 12:12:06;;;;;;;2.25;0.80;;;8.20;67.50;;;;;;4985847;28;20109;-66
2021/04/14 12:14:33;;;;;;;7.50;0.90;;;8.20;74.40;;;;;;4980365;28;20022;-67
2021/04/14 12:16:59;;;;;;;2.72;0.90;;;8.10;74.40;;;;;;4989202;28;20394;-66
2021/04/14 12:19:25;;;;;;;2.97;0.70;;;7.60;69.80;;;;;;4983736;28;20125;-66
2021/04/14 12:21:52;;;;;;;2.50;0.50;;;7.60;72.30;;;;;;4985718;28;20105;-66
2021/04/14 12:24:17;;;;;;;3.67;0.70;;;7.60;73.10;;;;;;4983810;28;21172;-66
2021/04/14 12:26:44;;;;;;;3.85;1.02;;;7.80;68.50;;;;;;4984305;28;20422;-66
2021/04/14 12:29:09;;;;;;;6.13;0.82;;;8.10;68.60;;;;;;4981749;28;20034;-66
2021/04/14 12:31:35;;;;;;;3.50;0.80;;;8.60;66.60;;;;;;4988287;28;20018;-65
2021/04/14 12:34:04;;;;;;;4.32;1.20;;;9.00;65.70;;;;;;4984770;28;20026;-66
2021/04/14 12:36:29;;;;;;;8.10;1.00;;;9.10;67.30;;;;;;4984808;28;20194;-67
2021/04/14 12:38:55;;;;;;;4.60;1.23;;;9.00;68.00;;;;;;4982024;28;20357;-67
2021/04/14 12:41:21;;;;;;;5.68;1.00;;;8.80;69.70;;;;;;4988120;28;20080;-67
2021/04/14 12:43:46;;;;;;;2.35;0.70;;;9.30;70.20;;;;;;4984482;28;20786;-67
2021/04/14 12:46:12;;;;;;;4.80;1.00;;;9.20;66.10;;;;;;4982015;28;20041;-67
2021/04/14 12:48:41;;;;;;;2.40;0.80;;;8.90;66.00;;;;;;4982314;28;20046;-67
2021/04/14 12:51:31;;;;;;;4.30;0.90;;;8.10;66.40;;;;;;4984369;28;20089;-67
2021/04/14 12:54:02;;;;;;;3.88;0.90;;;7.60;68.90;;;;;;4984233;28;20034;-67
2021/04/14 12:56:34;;;;;;;4.32;0.80;;;7.50;70.60;;;;;;4986633;28;20426;-67